createdAt,value
2022-10-09T00:02:42.689Z,100848.50
2022-10-09T00:07:44.253Z,100853.81
2022-10-09T00:12:46.188Z,100857.47
2022-10-09T00:17:47.964Z,100851.56
2022-10-09T00:22:49.851Z,100856.75
2022-10-09T00:27:51.560Z,100854.34
2022-10-09T00:32:53.927Z,100852.66
2022-10-09T00:37:55.606Z,100861.63
2022-10-09T00:42:58.170Z,100858.19
2022-10-09T00:48:10.293Z,100862.66
2022-10-09T00:53:16.083Z,100857.38
2022-10-09T00:58:18.496Z,100860.06
2022-10-09T01:03:20.118Z,100862.59
2022-10-09T01:08:55.664Z,100869.66
2022-10-09T01:14:19.616Z,100862.81
2022-10-09T01:19:32.905Z,100862.03
2022-10-09T01:25:04.928Z,100860.38
2022-10-09T01:30:10.622Z,100868.31
2022-10-09T01:35:13.248Z,100871.88
2022-10-09T01:40:17.228Z,100872.75
2022-10-09T01:45:18.775Z,100879.78
2022-10-09T01:50:28.049Z,100887.44
2022-10-09T01:55:38.381Z,100887.53
2022-10-09T02:00:45.577Z,100887.69
2022-10-09T02:05:49.307Z,100889.47
2022-10-09T02:10:56.501Z,100895.56
2022-10-09T02:16:21.504Z,100893.84
2022-10-09T02:21:38.917Z,100902.56
2022-10-09T02:26:41.378Z,100908.47
2022-10-09T02:31:43.920Z,100906.00
2022-10-09T02:36:46.426Z,100904.31
2022-10-09T02:41:47.933Z,100908.63
2022-10-09T02:46:49.625Z,100915.72
2022-10-09T02:51:51.342Z,100921.78
2022-10-09T02:56:52.897Z,100920.97
2022-10-09T03:01:54.504Z,100925.25
2022-10-09T03:06:56.135Z,100934.91
2022-10-09T03:11:57.721Z,100929.63
2022-10-09T03:16:59.298Z,100935.72
2022-10-09T03:22:00.872Z,100941.00
2022-10-09T03:27:02.433Z,100952.28
2022-10-09T03:32:04.077Z,100944.44
2022-10-09T03:37:05.908Z,100958.38
2022-10-09T03:42:07.521Z,100964.50
2022-10-09T03:47:09.177Z,100955.78
2022-10-09T03:52:10.861Z,100966.22
2022-10-09T03:57:12.457Z,100970.50
2022-10-09T04:02:13.984Z,100963.59
2022-10-09T04:07:15.529Z,100977.50
2022-10-09T04:12:17.396Z,100976.56
2022-10-09T04:17:18.939Z,100974.81
2022-10-09T04:22:20.513Z,100973.97
2022-10-09T04:27:22.060Z,100973.88
2022-10-09T04:32:23.590Z,100979.97
2022-10-09T04:37:25.145Z,100978.19
2022-10-09T04:42:26.698Z,100984.25
2022-10-09T04:47:28.219Z,100978.28
2022-10-09T04:52:29.885Z,100976.50
2022-10-09T04:57:31.379Z,100971.22
2022-10-09T05:02:33.000Z,100976.50
2022-10-09T05:07:34.653Z,100985.94
2022-10-09T05:12:36.221Z,100990.22
2022-10-09T05:17:37.808Z,100998.13
2022-10-09T05:22:39.365Z,100993.72
2022-10-09T05:27:41.045Z,101013.63
2022-10-09T05:32:42.599Z,101025.75
2022-10-09T05:37:45.570Z,101027.56
2022-10-09T05:42:49.821Z,101017.28
2022-10-09T05:47:51.609Z,101017.13
2022-10-09T05:52:53.144Z,101011.91
2022-10-09T05:57:54.725Z,101019.78
2022-10-09T06:02:56.477Z,101016.38
2022-10-09T06:07:58.216Z,101018.94
2022-10-09T06:12:59.799Z,101020.91
2022-10-09T06:18:01.392Z,101027.94
2022-10-09T06:23:03.000Z,101028.88
2022-10-09T06:28:04.642Z,101038.47
2022-10-09T06:33:06.271Z,101051.50
2022-10-09T06:38:08.190Z,101046.31
2022-10-09T06:43:09.734Z,101047.19
2022-10-09T06:48:11.425Z,101053.31
2022-10-09T06:53:13.173Z,101060.25
2022-10-09T06:58:14.771Z,101062.91
2022-10-09T07:03:16.381Z,101059.41
2022-10-09T07:08:18.049Z,101071.59
2022-10-09T07:13:19.697Z,101075.06
2022-10-09T07:18:21.305Z,101071.53
2022-10-09T07:23:22.943Z,101083.66
2022-10-09T07:28:26.348Z,101087.13
2022-10-09T07:33:27.944Z,101087.97
2022-10-09T07:38:29.853Z,101090.56
2022-10-09T07:43:31.637Z,101096.63
2022-10-09T07:48:35.258Z,101098.81
2022-10-09T07:53:37.851Z,101099.69
2022-10-09T07:58:39.443Z,101100.69
2022-10-09T08:03:41.185Z,101104.81
2022-10-09T08:08:42.850Z,101102.00
2022-10-09T08:13:45.598Z,101098.38
2022-10-09T08:18:48.098Z,101104.13
2022-10-09T08:23:54.148Z,101104.06
2022-10-09T08:28:59.144Z,101106.75
2022-10-09T08:34:03.033Z,101095.47
2022-10-09T08:39:04.763Z,101093.28
2022-10-09T08:44:29.309Z,101095.59
2022-10-09T08:49:52.259Z,101095.66
2022-10-09T08:54:57.297Z,101095.38
2022-10-09T08:59:59.063Z,101090.75
2022-10-09T09:05:12.685Z,101085.81
2022-10-09T09:10:23.142Z,101088.84
2022-10-09T09:15:49.238Z,101085.22
2022-10-09T09:21:01.055Z,101088.63
2022-10-09T09:26:03.511Z,101081.03
2022-10-09T09:31:26.049Z,101080.63
2022-10-09T09:36:39.091Z,101083.66
2022-10-09T09:41:42.917Z,101075.75
2022-10-09T09:46:47.684Z,101073.97
2022-10-09T09:51:50.865Z,101057.25
2022-10-09T09:57:15.819Z,101053.03
2022-10-09T10:02:21.280Z,101049.44
2022-10-09T10:07:37.633Z,101049.56
2022-10-09T10:12:52.695Z,101052.28
2022-10-09T10:17:59.045Z,101045.47
2022-10-09T10:23:00.997Z,101040.91
2022-10-09T10:28:17.857Z,101037.84
2022-10-09T10:33:25.093Z,101043.94
2022-10-09T10:38:39.390Z,101037.03
2022-10-09T10:43:45.005Z,101022.31
2022-10-09T10:48:48.145Z,101023.56
2022-10-09T10:54:33.487Z,101019.06
2022-10-09T11:00:03.845Z,101005.78
2022-10-09T11:05:25.480Z,101007.88
2022-10-09T11:10:35.958Z,100997.91
2022-10-09T11:16:07.155Z,100987.41
2022-10-09T11:21:14.155Z,100987.81
2022-10-09T11:26:43.330Z,100974.75
2022-10-09T11:31:53.434Z,100963.91
2022-10-09T11:36:56.805Z,100956.16
2022-10-09T11:41:59.970Z,100950.06
2022-10-09T11:47:23.700Z,100944.22
2022-10-09T11:53:02.485Z,100935.63
2022-10-09T11:58:24.356Z,100916.69
2022-10-09T12:03:33.625Z,100919.75
2022-10-09T12:08:36.196Z,100906.72
2022-10-09T12:13:38.740Z,100893.94
2022-10-09T12:18:46.060Z,100897.09
2022-10-09T12:23:49.319Z,100879.72
2022-10-09T12:28:55.690Z,100883.63
2022-10-09T12:34:03.618Z,100874.72
2022-10-09T12:39:19.338Z,100862.84
2022-10-09T12:44:32.433Z,100862.50
2022-10-09T12:49:34.282Z,100853.03
2022-10-09T12:54:42.977Z,100852.88
2022-10-09T12:59:46.275Z,100847.59
2022-10-09T13:05:00.868Z,100834.13
2022-10-09T13:10:18.837Z,100827.97
2022-10-09T13:15:38.728Z,100825.22
2022-10-09T13:20:40.554Z,100818.00
2022-10-09T13:25:44.177Z,100815.41
2022-10-09T13:30:45.877Z,100814.03
2022-10-09T13:35:47.766Z,100806.66
2022-10-09T13:40:49.640Z,100801.72
2022-10-09T13:45:51.226Z,100797.13
2022-10-09T13:50:52.820Z,100785.38
2022-10-09T13:55:59.958Z,100782.16
2022-10-09T14:01:16.437Z,100781.34
2022-10-09T14:06:18.759Z,100778.19
2022-10-09T14:11:20.402Z,100775.00
2022-10-09T14:16:22.810Z,100769.38
2022-10-09T14:21:24.443Z,100769.16
2022-10-09T14:26:27.440Z,100759.25
2022-10-09T14:31:29.980Z,100754.91
2022-10-09T14:36:31.788Z,100744.44
2022-10-09T14:41:37.607Z,100739.91
2022-10-09T14:46:39.625Z,100730.91
2022-10-09T14:51:41.635Z,100731.66
2022-10-09T14:56:43.355Z,100719.69
2022-10-09T15:01:44.960Z,100727.97
2022-10-09T15:06:46.489Z,100724.88
2022-10-09T15:11:48.028Z,100718.53
2022-10-09T15:16:49.611Z,100718.59
2022-10-09T15:21:51.376Z,100714.25
2022-10-09T15:26:52.971Z,100715.66
2022-10-09T15:31:54.579Z,100702.25
2022-10-09T15:36:56.323Z,100694.59
2022-10-09T15:41:57.877Z,100702.84
2022-10-09T15:46:59.428Z,100701.03
2022-10-09T15:52:01.179Z,100696.84
2022-10-09T15:57:02.887Z,100691.66
2022-10-09T16:02:04.613Z,100697.69
2022-10-09T16:07:13.193Z,100704.78
2022-10-09T16:12:14.859Z,100699.91
2022-10-09T16:17:16.408Z,100699.44
2022-10-09T16:22:17.970Z,100703.16
2022-10-09T16:27:19.537Z,100702.25
2022-10-09T16:32:21.443Z,100700.50
2022-10-09T16:37:23.146Z,100703.19
2022-10-09T16:42:24.707Z,100708.94
2022-10-09T16:47:26.250Z,100697.25
2022-10-09T16:52:27.894Z,100703.66
2022-10-09T16:57:29.494Z,100699.91
2022-10-09T17:02:31.328Z,100700.22
2022-10-09T17:07:33.794Z,100695.59
2022-10-09T17:12:37.115Z,100693.91
2022-10-09T17:17:38.910Z,100693.91
2022-10-09T17:22:40.750Z,100683.38
2022-10-09T17:27:42.727Z,100687.09
2022-10-09T17:32:44.395Z,100682.66
2022-10-09T17:37:47.158Z,100677.91
2022-10-09T17:42:49.163Z,100679.00
2022-10-09T17:47:51.689Z,100677.91
2022-10-09T17:52:53.640Z,100680.69
2022-10-09T17:57:55.976Z,100669.03
2022-10-09T18:02:58.302Z,100671.78
2022-10-09T18:08:00.116Z,100678.66
2022-10-09T18:13:06.013Z,100682.00
2022-10-09T18:18:09.059Z,100672.25
2022-10-09T18:23:10.738Z,100672.03
2022-10-09T18:28:12.745Z,100670.44
2022-10-09T18:33:14.827Z,100671.91
2022-10-09T18:38:17.031Z,100664.13
2022-10-09T18:43:18.582Z,100664.88
2022-10-09T18:48:20.991Z,100658.13
2022-10-09T18:53:22.789Z,100657.13
2022-10-09T18:58:24.466Z,100654.09
2022-10-09T19:03:26.061Z,100659.09
2022-10-09T19:08:27.563Z,100647.47
2022-10-09T19:13:29.568Z,100648.22
2022-10-09T19:18:31.790Z,100650.91
2022-10-09T19:23:33.509Z,100645.72
2022-10-09T19:28:37.915Z,100643.53
2022-10-09T19:33:41.209Z,100634.03
2022-10-09T19:38:43.248Z,100631.25
2022-10-09T19:43:45.174Z,100619.97
2022-10-09T19:48:47.147Z,100620.94
2022-10-09T19:53:49.946Z,100622.34
2022-10-09T19:58:52.356Z,100621.72
2022-10-09T20:04:00.053Z,100614.81
2022-10-09T20:09:01.929Z,100602.56
2022-10-09T20:14:04.165Z,100604.72
2022-10-09T20:19:06.082Z,100602.09
2022-10-09T20:24:08.489Z,100597.59
2022-10-09T20:29:10.217Z,100588.00
2022-10-09T20:34:11.752Z,100582.81
2022-10-09T20:39:15.289Z,100581.16
2022-10-09T20:44:16.945Z,100580.28
2022-10-09T20:49:18.610Z,100574.47
2022-10-09T20:54:21.568Z,100565.53
2022-10-09T20:59:23.242Z,100568.06
2022-10-09T21:04:24.932Z,100557.53
2022-10-09T21:09:30.882Z,100561.06
2022-10-09T21:14:34.630Z,100552.44
2022-10-09T21:19:36.273Z,100549.84
2022-10-09T21:24:37.800Z,100537.63
2022-10-09T21:29:39.428Z,100538.50
2022-10-09T21:34:41.020Z,100541.16
2022-10-09T21:39:42.655Z,100530.69
2022-10-09T21:44:44.375Z,100528.22
2022-10-09T21:49:46.762Z,100517.09
2022-10-09T21:54:48.337Z,100516.19
2022-10-09T21:59:49.972Z,100514.56
2022-10-09T22:04:51.700Z,100513.59
2022-10-09T22:09:53.563Z,100510.31
2022-10-09T22:14:55.917Z,100505.09
2022-10-09T22:19:57.464Z,100499.88
2022-10-09T22:25:00.344Z,100495.53
2022-10-09T22:30:01.955Z,100491.28
2022-10-09T22:35:03.819Z,100487.72
2022-10-09T22:40:05.846Z,100486.28
2022-10-09T22:45:08.114Z,100477.34
2022-10-09T22:50:09.881Z,100473.13
2022-10-09T22:55:11.457Z,100460.91
2022-10-09T23:00:14.009Z,100458.47
2022-10-09T23:05:15.573Z,100461.19
2022-10-09T23:10:17.236Z,100450.72
2022-10-09T23:15:19.237Z,100449.84
2022-10-09T23:20:21.186Z,100445.47
2022-10-09T23:25:22.745Z,100443.84
2022-10-09T23:30:24.284Z,100430.94
2022-10-09T23:35:25.941Z,100428.25
2022-10-09T23:40:27.500Z,100427.25
2022-10-09T23:45:29.057Z,100423.78
2022-10-09T23:50:30.737Z,100412.31
2022-10-09T23:55:32.277Z,100416.06
